sensor_id;sensor_type;location;lat;lon;timestamp;P1;durP1;ratioP1;P2;durP2;ratioP2
13743;SDS011;6943;52.368;9.966;2023-09-12T00:00:51;15.97;;;13.27;;
13743;SDS011;6943;52.368;9.966;2023-09-12T00:03:20;16.23;;;13.07;;
13743;SDS011;6943;52.368;9.966;2023-09-12T00:05:50;17.00;;;13.63;;
13743;SDS011;6943;52.368;9.966;2023-09-12T00:08:20;15.67;;;13.63;;
13743;SDS011;6943;52.368;9.966;2023-09-12T00:10:45;19.73;;;12.70;;
13743;SDS011;6943;52.368;9.966;2023-09-12T00:13:11;16.77;;;13.33;;
13743;SDS011;6943;52.368;9.966;2023-09-12T00:15:36;18.10;;;14.07;;
13743;SDS011;6943;52.368;9.966;2023-09-12T00:18:02;21.00;;;14.48;;
13743;SDS011;6943;52.368;9.966;2023-09-12T00:20:28;20.10;;;14.33;;
13743;SDS011;6943;52.368;9.966;2023-09-12T00:22:54;17.00;;;14.30;;
13743;SDS011;6943;52.368;9.966;2023-09-12T00:25:19;20.70;;;14.10;;
13743;SDS011;6943;52.368;9.966;2023-09-12T00:27:45;16.92;;;13.65;;
13743;SDS011;6943;52.368;9.966;2023-09-12T00:30:11;14.83;;;13.27;;
13743;SDS011;6943;52.368;9.966;2023-09-12T00:32:38;16.87;;;13.87;;
13743;SDS011;6943;52.368;9.966;2023-09-12T00:35:04;18.00;;;14.67;;
13743;SDS011;6943;52.368;9.966;2023-09-12T00:37:30;16.87;;;14.87;;
13743;SDS011;6943;52.368;9.966;2023-09-12T00:39:55;17.60;;;14.93;;
13743;SDS011;6943;52.368;9.966;2023-09-12T00:42:21;18.43;;;16.47;;
13743;SDS011;6943;52.368;9.966;2023-09-12T00:44:46;17.03;;;15.27;;
13743;SDS011;6943;52.368;9.966;2023-09-12T00:47:12;19.13;;;14.93;;
13743;SDS011;6943;52.368;9.966;2023-09-12T00:49:39;19.70;;;16.40;;
13743;SDS011;6943;52.368;9.966;2023-09-12T00:52:05;21.13;;;15.73;;
13743;SDS011;6943;52.368;9.966;2023-09-12T00:54:31;19.80;;;15.40;;
13743;SDS011;6943;52.368;9.966;2023-09-12T00:56:56;18.17;;;15.93;;
13743;SDS011;6943;52.368;9.966;2023-09-12T00:59:22;17.90;;;16.20;;
13743;SDS011;6943;52.368;9.966;2023-09-12T01:01:48;20.73;;;16.03;;
13743;SDS011;6943;52.368;9.966;2023-09-12T02:05:56;17.27;;;15.57;;
13743;SDS011;6943;52.368;9.966;2023-09-12T02:08:22;19.27;;;16.20;;
13743;SDS011;6943;52.368;9.966;2023-09-12T02:10:47;18.90;;;17.00;;
13743;SDS011;6943;52.368;9.966;2023-09-12T02:13:13;18.13;;;16.40;;
13743;SDS011;6943;52.368;9.966;2023-09-12T02:15:38;22.10;;;17.00;;
13743;SDS011;6943;52.368;9.966;2023-09-12T02:18:04;19.73;;;17.73;;
13743;SDS011;6943;52.368;9.966;2023-09-12T02:20:30;20.13;;;18.13;;
13743;SDS011;6943;52.368;9.966;2023-09-12T02:22:57;20.70;;;18.20;;
13743;SDS011;6943;52.368;9.966;2023-09-12T02:25:22;21.00;;;17.27;;
13743;SDS011;6943;52.368;9.966;2023-09-12T02:27:48;22.40;;;16.87;;
13743;SDS011;6943;52.368;9.966;2023-09-12T02:30:13;20.80;;;17.80;;
13743;SDS011;6943;52.368;9.966;2023-09-12T02:32:41;20.73;;;18.40;;
13743;SDS011;6943;52.368;9.966;2023-09-12T02:35:07;20.23;;;18.10;;
13743;SDS011;6943;52.368;9.966;2023-09-12T02:37:33;19.83;;;17.23;;
13743;SDS011;6943;52.368;9.966;2023-09-12T02:39:58;19.77;;;17.77;;
13743;SDS011;6943;52.368;9.966;2023-09-12T02:42:24;20.20;;;17.23;;
13743;SDS011;6943;52.368;9.966;2023-09-12T02:44:50;19.23;;;17.33;;
13743;SDS011;6943;52.368;9.966;2023-09-12T02:47:17;19.90;;;17.90;;
13743;SDS011;6943;52.368;9.966;2023-09-12T02:49:42;21.37;;;19.47;;
13743;SDS011;6943;52.368;9.966;2023-09-12T02:52:08;18.80;;;17.07;;
13743;SDS011;6943;52.368;9.966;2023-09-12T02:54:34;20.13;;;18.23;;
13743;SDS011;6943;52.368;9.966;2023-09-12T02:56:59;21.53;;;18.60;;
13743;SDS011;6943;52.368;9.966;2023-09-12T02:59:25;21.00;;;18.77;;
13743;SDS011;6943;52.368;9.966;2023-09-12T03:01:50;21.07;;;18.90;;
13743;SDS011;6943;52.368;9.966;2023-09-12T03:04:16;23.97;;;19.40;;
13743;SDS011;6943;52.368;9.966;2023-09-12T03:06:41;19.77;;;17.67;;
13743;SDS011;6943;52.368;9.966;2023-09-12T03:09:07;22.00;;;19.93;;
13743;SDS011;6943;52.368;9.966;2023-09-12T03:11:32;21.93;;;19.10;;
13743;SDS011;6943;52.368;9.966;2023-09-12T03:13:58;22.00;;;19.83;;
13743;SDS011;6943;52.368;9.966;2023-09-12T03:16:24;22.77;;;20.37;;
13743;SDS011;6943;52.368;9.966;2023-09-12T03:18:49;23.20;;;20.70;;
13743;SDS011;6943;52.368;9.966;2023-09-12T03:21:16;24.33;;;21.80;;
13743;SDS011;6943;52.368;9.966;2023-09-12T03:23:41;23.50;;;21.17;;
13743;SDS011;6943;52.368;9.966;2023-09-12T03:26:07;25.00;;;22.10;;
13743;SDS011;6943;52.368;9.966;2023-09-12T03:28:32;24.00;;;21.70;;
13743;SDS011;6943;52.368;9.966;2023-09-12T03:31:05;24.00;;;21.60;;
13743;SDS011;6943;52.368;9.966;2023-09-12T03:33:33;24.17;;;21.60;;
13743;SDS011;6943;52.368;9.966;2023-09-12T03:35:58;23.47;;;21.07;;
13743;SDS011;6943;52.368;9.966;2023-09-12T03:38:24;29.03;;;22.63;;
13743;SDS011;6943;52.368;9.966;2023-09-12T03:40:49;23.93;;;20.40;;
13743;SDS011;6943;52.368;9.966;2023-09-12T03:43:15;22.73;;;20.47;;
13743;SDS011;6943;52.368;9.966;2023-09-12T03:45:40;23.07;;;20.63;;
13743;SDS011;6943;52.368;9.966;2023-09-12T03:48:06;22.57;;;20.13;;
13743;SDS011;6943;52.368;9.966;2023-09-12T03:50:31;22.50;;;20.10;;
13743;SDS011;6943;52.368;9.966;2023-09-12T03:52:57;22.80;;;20.50;;
13743;SDS011;6943;52.368;9.966;2023-09-12T03:55:22;22.83;;;20.33;;
13743;SDS011;6943;52.368;9.966;2023-09-12T03:57:48;21.60;;;19.37;;
13743;SDS011;6943;52.368;9.966;2023-09-12T04:00:14;22.17;;;19.80;;
13743;SDS011;6943;52.368;9.966;2023-09-12T04:02:40;22.77;;;19.57;;
13743;SDS011;6943;52.368;9.966;2023-09-12T04:05:05;22.67;;;20.47;;
13743;SDS011;6943;52.368;9.966;2023-09-12T04:07:31;24.53;;;22.20;;
13743;SDS011;6943;52.368;9.966;2023-09-12T04:09:57;24.93;;;22.33;;
13743;SDS011;6943;52.368;9.966;2023-09-12T04:12:22;24.97;;;22.30;;
13743;SDS011;6943;52.368;9.966;2023-09-12T04:14:49;25.00;;;22.50;;
13743;SDS011;6943;52.368;9.966;2023-09-12T04:17:16;24.67;;;22.27;;
13743;SDS011;6943;52.368;9.966;2023-09-12T04:19:41;25.53;;;23.07;;
13743;SDS011;6943;52.368;9.966;2023-09-12T04:22:06;25.87;;;22.10;;
13743;SDS011;6943;52.368;9.966;2023-09-12T04:24:32;25.53;;;23.13;;
13743;SDS011;6943;52.368;9.966;2023-09-12T04:26:57;26.20;;;23.30;;
13743;SDS011;6943;52.368;9.966;2023-09-12T04:29:23;25.20;;;22.70;;
13743;SDS011;6943;52.368;9.966;2023-09-12T04:31:49;25.50;;;22.80;;
13743;SDS011;6943;52.368;9.966;2023-09-12T04:34:15;23.50;;;21.17;;
13743;SDS011;6943;52.368;9.966;2023-09-12T04:36:40;24.43;;;20.97;;
13743;SDS011;6943;52.368;9.966;2023-09-12T04:39:06;22.87;;;20.47;;
13743;SDS011;6943;52.368;9.966;2023-09-12T04:41:31;23.80;;;21.00;;
13743;SDS011;6943;52.368;9.966;2023-09-12T04:43:57;23.73;;;20.90;;
13743;SDS011;6943;52.368;9.966;2023-09-12T04:46:24;23.87;;;20.57;;
13743;SDS011;6943;52.368;9.966;2023-09-12T04:48:50;25.83;;;21.77;;
13743;SDS011;6943;52.368;9.966;2023-09-12T04:51:15;23.07;;;20.13;;
13743;SDS011;6943;52.368;9.966;2023-09-12T04:53:41;22.27;;;19.90;;
13743;SDS011;6943;52.368;9.966;2023-09-12T04:56:06;23.03;;;20.63;;
13743;SDS011;6943;52.368;9.966;2023-09-12T04:58:34;23.10;;;20.70;;
13743;SDS011;6943;52.368;9.966;2023-09-12T05:01:00;23.83;;;21.33;;
13743;SDS011;6943;52.368;9.966;2023-09-12T05:03:25;22.60;;;20.30;;
13743;SDS011;6943;52.368;9.966;2023-09-12T05:05:51;24.00;;;21.40;;
13743;SDS011;6943;52.368;9.966;2023-09-12T05:08:17;23.20;;;20.83;;
13743;SDS011;6943;52.368;9.966;2023-09-12T05:10:45;22.13;;;19.83;;
13743;SDS011;6943;52.368;9.966;2023-09-12T05:13:11;25.53;;;20.00;;
13743;SDS011;6943;52.368;9.966;2023-09-12T05:15:37;23.80;;;19.07;;
13743;SDS011;6943;52.368;9.966;2023-09-12T05:18:04;22.77;;;20.37;;
13743;SDS011;6943;52.368;9.966;2023-09-12T05:20:30;21.10;;;18.93;;
13743;SDS011;6943;52.368;9.966;2023-09-12T05:22:56;21.07;;;18.93;;
13743;SDS011;6943;52.368;9.966;2023-09-12T05:25:22;20.43;;;18.33;;
13743;SDS011;6943;52.368;9.966;2023-09-12T05:27:47;20.07;;;18.07;;
13743;SDS011;6943;52.368;9.966;2023-09-12T05:30:13;19.50;;;16.87;;
13743;SDS011;6943;52.368;9.966;2023-09-12T05:32:38;20.27;;;18.17;;
13743;SDS011;6943;52.368;9.966;2023-09-12T05:35:05;19.60;;;17.60;;
13743;SDS011;6943;52.368;9.966;2023-09-12T05:37:31;18.77;;;16.87;;
13743;SDS011;6943;52.368;9.966;2023-09-12T05:39:56;20.07;;;17.80;;
13743;SDS011;6943;52.368;9.966;2023-09-12T05:42:22;19.83;;;17.73;;
13743;SDS011;6943;52.368;9.966;2023-09-12T05:44:48;20.73;;;17.60;;
13743;SDS011;6943;52.368;9.966;2023-09-12T05:47:14;19.47;;;17.33;;
13743;SDS011;6943;52.368;9.966;2023-09-12T05:49:41;20.00;;;18.00;;
13743;SDS011;6943;52.368;9.966;2023-09-12T05:52:06;19.70;;;17.80;;
13743;SDS011;6943;52.368;9.966;2023-09-12T05:54:32;19.60;;;17.70;;
13743;SDS011;6943;52.368;9.966;2023-09-12T05:56:57;21.13;;;18.57;;
13743;SDS011;6943;52.368;9.966;2023-09-12T05:59:23;19.80;;;17.83;;
13743;SDS011;6943;52.368;9.966;2023-09-12T06:01:48;19.07;;;17.33;;
13743;SDS011;6943;52.368;9.966;2023-09-12T06:04:14;18.80;;;16.80;;
13743;SDS011;6943;52.368;9.966;2023-09-12T06:06:40;19.13;;;17.20;;
13743;SDS011;6943;52.368;9.966;2023-09-12T06:09:05;18.57;;;16.47;;
13743;SDS011;6943;52.368;9.966;2023-09-12T06:11:31;17.50;;;15.43;;
13743;SDS011;6943;52.368;9.966;2023-09-12T06:13:56;18.43;;;15.17;;
13743;SDS011;6943;52.368;9.966;2023-09-12T06:16:22;17.97;;;16.10;;
13743;SDS011;6943;52.368;9.966;2023-09-12T06:18:47;17.73;;;15.00;;
13743;SDS011;6943;52.368;9.966;2023-09-12T06:21:13;15.63;;;14.03;;
13743;SDS011;6943;52.368;9.966;2023-09-12T06:23:39;19.20;;;17.30;;
13743;SDS011;6943;52.368;9.966;2023-09-12T06:26:04;25.77;;;21.63;;
13743;SDS011;6943;52.368;9.966;2023-09-12T06:28:31;26.47;;;23.23;;
13743;SDS011;6943;52.368;9.966;2023-09-12T06:30:57;25.47;;;21.73;;
13743;SDS011;6943;52.368;9.966;2023-09-12T06:33:23;27.30;;;23.37;;
13743;SDS011;6943;52.368;9.966;2023-09-12T06:35:50;25.40;;;22.80;;
13743;SDS011;6943;52.368;9.966;2023-09-12T06:38:17;26.90;;;23.83;;
13743;SDS011;6943;52.368;9.966;2023-09-12T06:40:43;28.53;;;22.87;;
13743;SDS011;6943;52.368;9.966;2023-09-12T06:43:09;28.47;;;23.27;;
13743;SDS011;6943;52.368;9.966;2023-09-12T06:45:34;25.87;;;23.00;;
13743;SDS011;6943;52.368;9.966;2023-09-12T06:48:02;29.07;;;24.10;;
13743;SDS011;6943;52.368;9.966;2023-09-12T06:50:28;23.63;;;21.13;;
13743;SDS011;6943;52.368;9.966;2023-09-12T06:52:54;25.33;;;20.30;;
13743;SDS011;6943;52.368;9.966;2023-09-12T06:55:19;25.60;;;22.70;;
13743;SDS011;6943;52.368;9.966;2023-09-12T06:57:45;26.47;;;22.67;;
13743;SDS011;6943;52.368;9.966;2023-09-12T07:00:11;29.97;;;24.83;;
13743;SDS011;6943;52.368;9.966;2023-09-12T07:02:37;28.13;;;25.17;;
13743;SDS011;6943;52.368;9.966;2023-09-12T07:05:03;25.40;;;22.70;;
13743;SDS011;6943;52.368;9.966;2023-09-12T07:07:29;24.40;;;21.03;;
13743;SDS011;6943;52.368;9.966;2023-09-12T07:09:55;22.57;;;19.87;;
13743;SDS011;6943;52.368;9.966;2023-09-12T07:12:21;20.83;;;18.63;;
13743;SDS011;6943;52.368;9.966;2023-09-12T07:14:47;21.43;;;19.23;;
13743;SDS011;6943;52.368;9.966;2023-09-12T07:17:12;16.47;;;14.03;;
13743;SDS011;6943;52.368;9.966;2023-09-12T07:19:38;13.57;;;12.17;;
13743;SDS011;6943;52.368;9.966;2023-09-12T07:22:03;14.03;;;12.70;;
13743;SDS011;6943;52.368;9.966;2023-09-12T07:24:29;16.67;;;15.10;;
13743;SDS011;6943;52.368;9.966;2023-09-12T07:26:54;18.87;;;17.00;;
13743;SDS011;6943;52.368;9.966;2023-09-12T07:29:20;21.37;;;19.13;;
13743;SDS011;6943;52.368;9.966;2023-09-12T07:31:45;29.90;;;24.27;;
13743;SDS011;6943;52.368;9.966;2023-09-12T07:34:11;30.03;;;26.27;;
13743;SDS011;6943;52.368;9.966;2023-09-12T07:36:39;34.80;;;29.60;;
13743;SDS011;6943;52.368;9.966;2023-09-12T07:39:05;34.93;;;31.13;;
13743;SDS011;6943;52.368;9.966;2023-09-12T07:41:31;37.47;;;33.50;;
13743;SDS011;6943;52.368;9.966;2023-09-12T07:43:57;39.17;;;34.97;;
13743;SDS011;6943;52.368;9.966;2023-09-12T07:46:22;40.47;;;36.27;;
13743;SDS011;6943;52.368;9.966;2023-09-12T07:48:48;40.50;;;36.10;;
13743;SDS011;6943;52.368;9.966;2023-09-12T07:51:14;40.83;;;36.37;;
13743;SDS011;6943;52.368;9.966;2023-09-12T07:53:40;40.80;;;35.87;;
13743;SDS011;6943;52.368;9.966;2023-09-12T07:56:06;41.07;;;36.57;;
13743;SDS011;6943;52.368;9.966;2023-09-12T07:58:33;40.43;;;36.10;;
13743;SDS011;6943;52.368;9.966;2023-09-12T08:00:58;38.70;;;34.60;;
13743;SDS011;6943;52.368;9.966;2023-09-12T08:03:24;38.53;;;31.90;;
13743;SDS011;6943;52.368;9.966;2023-09-12T08:05:56;34.80;;;31.10;;
13743;SDS011;6943;52.368;9.966;2023-09-12T08:08:22;31.80;;;28.73;;
13743;SDS011;6943;52.368;9.966;2023-09-12T08:10:48;30.70;;;27.13;;
13743;SDS011;6943;52.368;9.966;2023-09-12T08:13:14;27.23;;;24.33;;
13743;SDS011;6943;52.368;9.966;2023-09-12T08:15:39;25.53;;;22.83;;
13743;SDS011;6943;52.368;9.966;2023-09-12T08:18:05;25.67;;;23.17;;
13743;SDS011;6943;52.368;9.966;2023-09-12T08:20:31;21.93;;;19.23;;
13743;SDS011;6943;52.368;9.966;2023-09-12T08:22:56;19.95;;;17.92;;
13743;SDS011;6943;52.368;9.966;2023-09-12T08:25:22;20.30;;;18.35;;
13743;SDS011;6943;52.368;9.966;2023-09-12T08:27:48;20.95;;;18.80;;
13743;SDS011;6943;52.368;9.966;2023-09-12T08:30:13;20.13;;;18.00;;
13743;SDS011;6943;52.368;9.966;2023-09-12T08:32:40;20.05;;;18.23;;
13743;SDS011;6943;52.368;9.966;2023-09-12T08:35:08;20.60;;;18.70;;
13743;SDS011;6943;52.368;9.966;2023-09-12T08:37:35;18.75;;;16.95;;
13743;SDS011;6943;52.368;9.966;2023-09-12T08:40:01;19.80;;;17.90;;
13743;SDS011;6943;52.368;9.966;2023-09-12T08:42:27;19.73;;;17.90;;
13743;SDS011;6943;52.368;9.966;2023-09-12T08:44:53;20.20;;;18.25;;
13743;SDS011;6943;52.368;9.966;2023-09-12T08:47:19;19.33;;;17.42;;
13743;SDS011;6943;52.368;9.966;2023-09-12T08:49:47;18.85;;;16.98;;
13743;SDS011;6943;52.368;9.966;2023-09-12T08:52:13;19.45;;;17.40;;
13743;SDS011;6943;52.368;9.966;2023-09-12T08:54:38;20.52;;;18.48;;
13743;SDS011;6943;52.368;9.966;2023-09-12T08:57:04;22.38;;;19.15;;
13743;SDS011;6943;52.368;9.966;2023-09-12T08:59:31;20.60;;;18.70;;
13743;SDS011;6943;52.368;9.966;2023-09-12T09:01:59;22.00;;;19.70;;
13743;SDS011;6943;52.368;9.966;2023-09-12T09:04:26;21.83;;;19.73;;
13743;SDS011;6943;52.368;9.966;2023-09-12T09:06:55;21.98;;;19.88;;
13743;SDS011;6943;52.368;9.966;2023-09-12T09:09:23;21.55;;;19.35;;
13743;SDS011;6943;52.368;9.966;2023-09-12T09:11:49;23.50;;;21.20;;
13743;SDS011;6943;52.368;9.966;2023-09-12T09:14:15;25.90;;;21.65;;
13743;SDS011;6943;52.368;9.966;2023-09-12T09:16:40;21.77;;;19.63;;
13743;SDS011;6943;52.368;9.966;2023-09-12T09:19:06;21.33;;;19.25;;
13743;SDS011;6943;52.368;9.966;2023-09-12T09:21:35;20.77;;;18.73;;
13743;SDS011;6943;52.368;9.966;2023-09-12T09:24:06;20.77;;;18.55;;
13743;SDS011;6943;52.368;9.966;2023-09-12T09:26:40;18.90;;;16.35;;
13743;SDS011;6943;52.368;9.966;2023-09-12T09:29:08;21.88;;;15.05;;
13743;SDS011;6943;52.368;9.966;2023-09-12T09:31:35;17.13;;;15.52;;
13743;SDS011;6943;52.368;9.966;2023-09-12T09:34:04;21.33;;;14.65;;
13743;SDS011;6943;52.368;9.966;2023-09-12T09:36:57;16.58;;;14.82;;
13743;SDS011;6943;52.368;9.966;2023-09-12T09:39:24;15.10;;;13.65;;
13743;SDS011;6943;52.368;9.966;2023-09-12T09:41:51;16.83;;;15.13;;
13743;SDS011;6943;52.368;9.966;2023-09-12T09:44:18;16.85;;;14.90;;
13743;SDS011;6943;52.368;9.966;2023-09-12T09:47:00;13.57;;;12.20;;
13743;SDS011;6943;52.368;9.966;2023-09-12T09:49:30;12.60;;;10.45;;
13743;SDS011;6943;52.368;9.966;2023-09-12T09:51:56;9.65;;;8.55;;
13743;SDS011;6943;52.368;9.966;2023-09-12T09:54:23;7.97;;;7.20;;
13743;SDS011;6943;52.368;9.966;2023-09-12T09:56:54;7.72;;;7.00;;
13743;SDS011;6943;52.368;9.966;2023-09-12T09:59:21;8.13;;;6.60;;
13743;SDS011;6943;52.368;9.966;2023-09-12T10:01:48;7.10;;;5.95;;
13743;SDS011;6943;52.368;9.966;2023-09-12T10:04:15;6.57;;;5.97;;
13743;SDS011;6943;52.368;9.966;2023-09-12T10:06:45;6.18;;;5.57;;
13743;SDS011;6943;52.368;9.966;2023-09-12T10:09:13;5.50;;;5.00;;
13743;SDS011;6943;52.368;9.966;2023-09-12T10:11:39;5.60;;;5.00;;
13743;SDS011;6943;52.368;9.966;2023-09-12T10:14:06;6.00;;;5.47;;
13743;SDS011;6943;52.368;9.966;2023-09-12T10:16:33;6.55;;;5.95;;
13743;SDS011;6943;52.368;9.966;2023-09-12T10:19:04;6.40;;;5.80;;
13743;SDS011;6943;52.368;9.966;2023-09-12T10:21:41;7.03;;;4.97;;
13743;SDS011;6943;52.368;9.966;2023-09-12T10:24:15;5.82;;;5.32;;
13743;SDS011;6943;52.368;9.966;2023-09-12T10:26:44;6.32;;;5.28;;
13743;SDS011;6943;52.368;9.966;2023-09-12T10:29:13;5.90;;;5.40;;
13743;SDS011;6943;52.368;9.966;2023-09-12T10:31:42;5.78;;;5.25;;
13743;SDS011;6943;52.368;9.966;2023-09-12T10:34:08;7.75;;;5.70;;
13743;SDS011;6943;52.368;9.966;2023-09-12T10:36:38;6.05;;;5.55;;
13743;SDS011;6943;52.368;9.966;2023-09-12T10:39:05;5.43;;;4.93;;
13743;SDS011;6943;52.368;9.966;2023-09-12T10:41:32;6.07;;;5.50;;
13743;SDS011;6943;52.368;9.966;2023-09-12T10:44:01;5.47;;;5.07;;
13743;SDS011;6943;52.368;9.966;2023-09-12T10:46:34;6.05;;;5.50;;
13743;SDS011;6943;52.368;9.966;2023-09-12T10:49:08;6.10;;;5.35;;
13743;SDS011;6943;52.368;9.966;2023-09-12T10:51:39;6.30;;;5.70;;
13743;SDS011;6943;52.368;9.966;2023-09-12T10:54:09;5.35;;;4.82;;
13743;SDS011;6943;52.368;9.966;2023-09-12T10:56:38;6.57;;;5.97;;
13743;SDS011;6943;52.368;9.966;2023-09-12T11:01:31;7.40;;;6.70;;
13743;SDS011;6943;52.368;9.966;2023-09-12T11:03:58;7.05;;;6.40;;
13743;SDS011;6943;52.368;9.966;2023-09-12T11:06:44;7.15;;;6.53;;
13743;SDS011;6943;52.368;9.966;2023-09-12T11:11:39;8.93;;;6.80;;
13743;SDS011;6943;52.368;9.966;2023-09-12T11:14:06;7.50;;;6.85;;
13743;SDS011;6943;52.368;9.966;2023-09-12T11:16:32;7.45;;;6.82;;
13743;SDS011;6943;52.368;9.966;2023-09-12T11:19:17;7.35;;;6.75;;
13743;SDS011;6943;52.368;9.966;2023-09-12T11:21:49;7.70;;;7.03;;
13743;SDS011;6943;52.368;9.966;2023-09-12T11:24:16;8.95;;;8.05;;
13743;SDS011;6943;52.368;9.966;2023-09-12T11:26:56;8.57;;;7.78;;
13743;SDS011;6943;52.368;9.966;2023-09-12T11:29:29;7.63;;;6.75;;
13743;SDS011;6943;52.368;9.966;2023-09-12T11:32:00;8.27;;;7.57;;
13743;SDS011;6943;52.368;9.966;2023-09-12T11:34:27;8.32;;;7.53;;
13743;SDS011;6943;52.368;9.966;2023-09-12T11:36:57;8.02;;;7.38;;
13743;SDS011;6943;52.368;9.966;2023-09-12T11:39:26;9.27;;;8.38;;
13743;SDS011;6943;52.368;9.966;2023-09-12T11:41:57;11.65;;;10.55;;
13743;SDS011;6943;52.368;9.966;2023-09-12T11:44:24;10.45;;;9.45;;
13743;SDS011;6943;52.368;9.966;2023-09-12T11:46:51;10.18;;;9.30;;
13743;SDS011;6943;52.368;9.966;2023-09-12T11:49:18;11.13;;;10.07;;
13743;SDS011;6943;52.368;9.966;2023-09-12T11:51:48;11.80;;;10.70;;
13743;SDS011;6943;52.368;9.966;2023-09-12T11:54:14;11.93;;;10.82;;
13743;SDS011;6943;52.368;9.966;2023-09-12T11:56:42;12.68;;;11.40;;
13743;SDS011;6943;52.368;9.966;2023-09-12T11:59:07;13.30;;;11.98;;
13743;SDS011;6943;52.368;9.966;2023-09-12T12:01:33;12.73;;;10.98;;
13743;SDS011;6943;52.368;9.966;2023-09-12T12:03:58;12.33;;;10.57;;
13743;SDS011;6943;52.368;9.966;2023-09-12T12:06:24;12.25;;;9.70;;
13743;SDS011;6943;52.368;9.966;2023-09-12T12:08:50;11.05;;;9.93;;
13743;SDS011;6943;52.368;9.966;2023-09-12T12:11:19;10.97;;;9.90;;
13743;SDS011;6943;52.368;9.966;2023-09-12T12:13:45;10.80;;;9.70;;
13743;SDS011;6943;52.368;9.966;2023-09-12T12:16:16;11.63;;;10.43;;
13743;SDS011;6943;52.368;9.966;2023-09-12T12:18:42;12.40;;;10.27;;
13743;SDS011;6943;52.368;9.966;2023-09-12T12:21:08;11.97;;;10.70;;
13743;SDS011;6943;52.368;9.966;2023-09-12T12:23:33;13.03;;;11.47;;
13743;SDS011;6943;52.368;9.966;2023-09-12T12:26:08;12.83;;;11.57;;
13743;SDS011;6943;52.368;9.966;2023-09-12T12:28:35;14.60;;;13.10;;
13743;SDS011;6943;52.368;9.966;2023-09-12T12:31:00;15.00;;;12.90;;
13743;SDS011;6943;52.368;9.966;2023-09-12T12:33:26;15.83;;;14.20;;
13743;SDS011;6943;52.368;9.966;2023-09-12T12:36:04;17.20;;;15.33;;
13743;SDS011;6943;52.368;9.966;2023-09-12T12:38:36;20.17;;;18.07;;
13743;SDS011;6943;52.368;9.966;2023-09-12T12:41:03;17.30;;;15.50;;
13743;SDS011;6943;52.368;9.966;2023-09-12T12:43:29;17.87;;;16.13;;
13743;SDS011;6943;52.368;9.966;2023-09-12T12:45:56;14.27;;;12.87;;
13743;SDS011;6943;52.368;9.966;2023-09-12T12:48:32;17.17;;;13.43;;
13743;SDS011;6943;52.368;9.966;2023-09-12T12:51:01;13.43;;;12.13;;
13743;SDS011;6943;52.368;9.966;2023-09-12T12:53:42;16.47;;;14.77;;
13743;SDS011;6943;52.368;9.966;2023-09-12T12:56:08;15.90;;;14.20;;
13743;SDS011;6943;52.368;9.966;2023-09-12T12:58:36;15.03;;;13.50;;
13743;SDS011;6943;52.368;9.966;2023-09-12T13:01:01;16.63;;;14.73;;
13743;SDS011;6943;52.368;9.966;2023-09-12T13:03:27;15.93;;;14.43;;
13743;SDS011;6943;52.368;9.966;2023-09-12T13:05:52;16.80;;;13.27;;
13743;SDS011;6943;52.368;9.966;2023-09-12T13:08:18;15.07;;;13.57;;
13743;SDS011;6943;52.368;9.966;2023-09-12T13:10:43;15.30;;;13.83;;
13743;SDS011;6943;52.368;9.966;2023-09-12T13:13:09;15.93;;;14.33;;
13743;SDS011;6943;52.368;9.966;2023-09-12T13:15:35;15.70;;;14.30;;
13743;SDS011;6943;52.368;9.966;2023-09-12T13:18:01;15.33;;;13.93;;
13743;SDS011;6943;52.368;9.966;2023-09-12T13:20:26;15.30;;;13.93;;
13743;SDS011;6943;52.368;9.966;2023-09-12T13:22:52;15.03;;;13.40;;
13743;SDS011;6943;52.368;9.966;2023-09-12T13:25:17;13.97;;;12.57;;
13743;SDS011;6943;52.368;9.966;2023-09-12T13:27:44;14.40;;;13.00;;
13743;SDS011;6943;52.368;9.966;2023-09-12T13:30:10;12.87;;;11.17;;
13743;SDS011;6943;52.368;9.966;2023-09-12T13:32:36;12.37;;;11.07;;
13743;SDS011;6943;52.368;9.966;2023-09-12T13:35:02;12.47;;;11.00;;
13743;SDS011;6943;52.368;9.966;2023-09-12T13:37:27;11.93;;;10.67;;
13743;SDS011;6943;52.368;9.966;2023-09-12T13:39:54;11.20;;;9.95;;
13743;SDS011;6943;52.368;9.966;2023-09-12T13:42:20;10.02;;;9.02;;
13743;SDS011;6943;52.368;9.966;2023-09-12T13:44:49;10.57;;;9.57;;
13743;SDS011;6943;52.368;9.966;2023-09-12T13:47:15;8.65;;;7.30;;
13743;SDS011;6943;52.368;9.966;2023-09-12T13:49:47;8.80;;;7.85;;
13743;SDS011;6943;52.368;9.966;2023-09-12T13:52:13;8.73;;;6.65;;
13743;SDS011;6943;52.368;9.966;2023-09-12T13:54:39;9.65;;;6.38;;
13743;SDS011;6943;52.368;9.966;2023-09-12T13:57:05;8.55;;;6.70;;
13743;SDS011;6943;52.368;9.966;2023-09-12T13:59:30;6.03;;;4.95;;
13743;SDS011;6943;52.368;9.966;2023-09-12T14:01:56;5.32;;;4.78;;
13743;SDS011;6943;52.368;9.966;2023-09-12T14:04:21;5.65;;;5.07;;
13743;SDS011;6943;52.368;9.966;2023-09-12T14:06:47;5.57;;;5.07;;
13743;SDS011;6943;52.368;9.966;2023-09-12T14:09:12;5.38;;;4.55;;
13743;SDS011;6943;52.368;9.966;2023-09-12T14:11:38;4.85;;;4.38;;
13743;SDS011;6943;52.368;9.966;2023-09-12T14:14:04;5.70;;;4.07;;
13743;SDS011;6943;52.368;9.966;2023-09-12T14:16:30;6.05;;;4.80;;
13743;SDS011;6943;52.368;9.966;2023-09-12T14:18:56;4.97;;;4.47;;
13743;SDS011;6943;52.368;9.966;2023-09-12T14:21:21;4.40;;;4.00;;
13743;SDS011;6943;52.368;9.966;2023-09-12T14:23:47;5.80;;;4.20;;
13743;SDS011;6943;52.368;9.966;2023-09-12T14:26:12;5.00;;;4.50;;
13743;SDS011;6943;52.368;9.966;2023-09-12T14:28:38;5.78;;;4.30;;
13743;SDS011;6943;52.368;9.966;2023-09-12T14:31:03;6.82;;;4.68;;
13743;SDS011;6943;52.368;9.966;2023-09-12T14:33:31;4.70;;;4.25;;
13743;SDS011;6943;52.368;9.966;2023-09-12T14:35:56;5.38;;;4.38;;
13743;SDS011;6943;52.368;9.966;2023-09-12T14:38:22;4.80;;;4.25;;
13743;SDS011;6943;52.368;9.966;2023-09-12T14:40:48;4.15;;;3.72;;
13743;SDS011;6943;52.368;9.966;2023-09-12T14:43:14;4.68;;;3.83;;
13743;SDS011;6943;52.368;9.966;2023-09-12T14:45:39;5.10;;;3.85;;
13743;SDS011;6943;52.368;9.966;2023-09-12T14:48:05;3.90;;;3.58;;
13743;SDS011;6943;52.368;9.966;2023-09-12T14:50:32;3.72;;;3.38;;
13743;SDS011;6943;52.368;9.966;2023-09-12T14:52:58;4.90;;;3.35;;
13743;SDS011;6943;52.368;9.966;2023-09-12T14:55:23;3.75;;;3.42;;
13743;SDS011;6943;52.368;9.966;2023-09-12T14:57:49;4.07;;;3.78;;
13743;SDS011;6943;52.368;9.966;2023-09-12T15:00:14;3.85;;;3.55;;
13743;SDS011;6943;52.368;9.966;2023-09-12T15:02:40;5.75;;;3.47;;
13743;SDS011;6943;52.368;9.966;2023-09-12T15:05:07;3.70;;;3.42;;
13743;SDS011;6943;52.368;9.966;2023-09-12T15:07:33;3.88;;;3.58;;
13743;SDS011;6943;52.368;9.966;2023-09-12T15:09:59;4.47;;;4.07;;
13743;SDS011;6943;52.368;9.966;2023-09-12T15:12:25;5.22;;;4.78;;
13743;SDS011;6943;52.368;9.966;2023-09-12T15:14:50;3.85;;;3.50;;
13743;SDS011;6943;52.368;9.966;2023-09-12T15:17:17;4.35;;;3.95;;
13743;SDS011;6943;52.368;9.966;2023-09-12T15:19:42;5.88;;;4.30;;
13743;SDS011;6943;52.368;9.966;2023-09-12T15:22:08;4.40;;;4.00;;
13743;SDS011;6943;52.368;9.966;2023-09-12T15:24:34;6.00;;;5.50;;
13743;SDS011;6943;52.368;9.966;2023-09-12T15:26:59;4.82;;;4.07;;
13743;SDS011;6943;52.368;9.966;2023-09-12T15:29:25;4.30;;;3.70;;
13743;SDS011;6943;52.368;9.966;2023-09-12T15:31:50;5.13;;;4.22;;
13743;SDS011;6943;52.368;9.966;2023-09-12T15:34:16;4.30;;;4.00;;
13743;SDS011;6943;52.368;9.966;2023-09-12T15:36:45;5.82;;;5.32;;
13743;SDS011;6943;52.368;9.966;2023-09-12T15:39:11;6.50;;;3.92;;
13743;SDS011;6943;52.368;9.966;2023-09-12T15:41:37;4.10;;;3.70;;
13743;SDS011;6943;52.368;9.966;2023-09-12T15:44:03;5.30;;;4.10;;